»·PEaware :: HB-LUK EDDH-EDDI

HB-LUK :: EDDH-EDDI

FLIGHT INFORMATION

Flight Status: Arrived
Operator: Privately registered:
Switzerland
More flights under this callsign
Pilot: Timothy W. (9658)
Aircraft: Unknown
(PIPA)
More flights by this aircraft type
Origin: EDDH Hamburg
Germany
Destination: EDDI Tempelhof
Germany
More flights between these airports :: More routes between these airports
Route: AMLUH L619 PITEN Z998 NISGA 522814N0132320E
File this flight plan on PilotEdge
Remarks:
Altitude:
(Current/Filed)
9,000ft
Speed:
(Current/Filed)
119kts
Departed: 22-Aug-18 09:26 AM
Arrived: 22-Aug-18 10:29 AM
Distance/Time
Traveled:
142nm/1:02
Distance/Time
To Go:
Arrived

Flight Plot

Page will automatically refresh every two minutes.

Flight plan parsing failed; only flown route is shown


Map Options




Map Legend


Flown Route
Filed Route
Departure Airport
Arrival Airport
Navaid (VOR, NDB)
Fix

Horizontal Profiles

Position Reports

Time Latitude Longitude Heading Altitude Ground
Speed
22-Aug-18 09:18 53.626310 9.986590 58 34ft 0kts
22-Aug-18 09:19 53.626310 9.986590 58 34ft 0kts
22-Aug-18 09:20 53.626310 9.986590 58 34ft 0kts
22-Aug-18 09:21 53.626310 9.986590 58 34ft 0kts
22-Aug-18 09:22 53.626323 9.986625 57 34ft 2kts
22-Aug-18 09:23 53.624959 9.985155 259 33ft 18kts
22-Aug-18 09:24 53.622610 9.977488 230 27ft 16kts
22-Aug-18 09:25 53.619417 9.971038 230 26ft 18kts
22-Aug-18 09:26 53.616831 9.964205 328 29ft 15kts
22-Aug-18 09:27 53.626282 9.979826 48 129ft 104kts
22-Aug-18 09:28 53.648022 10.024135 49 1090ft 128kts
22-Aug-18 09:29 53.670900 10.071194 50 1927ft 132kts
22-Aug-18 09:30 53.694418 10.119167 50 2736ft 134kts
22-Aug-18 09:31 53.716253 10.169404 88 3487ft 135kts
22-Aug-18 09:32 53.689040 10.200244 166 4203ft 128kts
22-Aug-18 09:33 53.654662 10.217481 167 4897ft 129kts
22-Aug-18 09:34 53.620202 10.234215 167 5548ft 131kts
22-Aug-18 09:35 53.585087 10.250901 168 6171ft 132kts
22-Aug-18 09:36 53.549600 10.267519 168 6762ft 133kts
22-Aug-18 09:37 53.513643 10.284190 168 7325ft 135kts
22-Aug-18 09:38 53.477271 10.300934 168 7861ft 136kts
22-Aug-18 09:39 53.440644 10.317709 168 8371ft 137kts
22-Aug-18 09:40 53.416046 10.365879 121 8853ft 146kts
22-Aug-18 09:41 53.395984 10.428772 120 9040ft 165kts
22-Aug-18 09:42 53.373059 10.500757 120 9044ft 181kts
22-Aug-18 09:43 53.349181 10.575819 120 9047ft 185kts
22-Aug-18 09:44 53.324811 10.652278 120 9048ft 187kts
22-Aug-18 09:45 53.300467 10.728503 120 9048ft 184kts
22-Aug-18 09:46 53.276525 10.803158 120 9047ft 182kts
22-Aug-18 09:47 53.252522 10.877909 120 9047ft 181kts
22-Aug-18 09:48 53.228493 10.951570 120 9048ft 180kts
22-Aug-18 09:49 53.204491 11.025280 120 9047ft 180kts
22-Aug-18 09:50 53.180691 11.098443 120 9047ft 179kts
22-Aug-18 09:51 53.157570 11.171118 120 9046ft 178kts
22-Aug-18 09:52 53.134194 11.243798 120 9047ft 178kts
22-Aug-18 09:53 53.110460 11.316557 120 9046ft 178kts
22-Aug-18 09:54 53.086694 11.388764 120 9047ft 178kts
22-Aug-18 09:55 53.062765 11.461399 120 9046ft 179kts
22-Aug-18 09:56 53.042703 11.522191 120 9047ft 180kts
22-Aug-18 09:57 53.023491 11.613550 106 9056ft 181kts
22-Aug-18 09:58 53.012149 11.680602 106 9064ft 181kts
22-Aug-18 09:59 52.996230 11.774667 107 9074ft 181kts
22-Aug-18 10:00 52.978390 11.836080 129 9075ft 179kts
22-Aug-18 10:01 52.943275 11.912832 129 9074ft 179kts
22-Aug-18 10:02 52.918007 11.967961 129 9074ft 180kts
22-Aug-18 10:03 52.887727 12.033887 129 9074ft 180kts
22-Aug-18 10:04 52.857267 12.099944 129 9076ft 180kts
22-Aug-18 10:05 52.827541 12.165559 129 9073ft 177kts
22-Aug-18 10:06 52.797594 12.230932 127 9074ft 179kts
22-Aug-18 10:07 52.767332 12.296802 127 9074ft 181kts
22-Aug-18 10:08 52.736698 12.363087 127 9074ft 182kts
22-Aug-18 10:09 52.705836 12.428883 137 9070ft 182kts
22-Aug-18 10:10 52.662364 12.472582 149 8758ft 183kts
22-Aug-18 10:11 52.619078 12.515161 149 8263ft 182kts
22-Aug-18 10:12 52.575936 12.557586 149 7768ft 181kts
22-Aug-18 10:13 52.532918 12.599837 148 7273ft 180kts
22-Aug-18 10:14 52.489891 12.642025 148 6777ft 180kts
22-Aug-18 10:15 52.446964 12.684031 148 6281ft 179kts
22-Aug-18 10:16 52.404654 12.725362 148 5777ft 175kts
22-Aug-18 10:17 52.363122 12.765843 148 5271ft 172kts
22-Aug-18 10:18 52.322752 12.805102 148 4810ft 166kts
22-Aug-18 10:19 52.283481 12.843216 148 4388ft 166kts
22-Aug-18 10:20 52.261701 12.897375 56 3966ft 167kts
22-Aug-18 10:21 52.287526 12.960415 55 3479ft 166kts
22-Aug-18 10:22 52.313601 13.022564 54 2976ft 165kts
22-Aug-18 10:23 52.339776 13.084213 54 2475ft 165kts
22-Aug-18 10:24 52.366314 13.145369 54 1976ft 165kts
22-Aug-18 10:25 52.392877 13.206486 55 1488ft 164kts
22-Aug-18 10:26 52.417272 13.262965 55 1109ft 140kts
22-Aug-18 10:27 52.437443 13.309850 55 825ft 115kts
22-Aug-18 10:28 52.456519 13.348111 49 560ft 94kts
22-Aug-18 10:29 52.473708 13.378098 41 417ft 89kts
22-Aug-18 10:30 52.475310 13.407256 87 152ft 21kts
22-Aug-18 10:31 52.475512 13.414569 82 157ft 15kts
22-Aug-18 10:32 52.474119 13.415997 76 160ft 0kts
22-Aug-18 10:33 52.474119 13.415997 76 160ft 0kts
22-Aug-18 10:34 52.474119 13.415997 76 160ft 0kts
22-Aug-18 10:35 52.474119 13.415997 76 160ft 0kts
22-Aug-18 10:36 52.474119 13.415997 76 160ft 0kts
22-Aug-18 10:37 52.474119 13.415997 76 160ft 0kts

Navigation Log

Ident Type
Flight plan parsing failed, navigation log unavailable